Time;durP1;ratioP1;P1;durP2;ratioP2;P2;SDS_P1;SDS_P2;PMS_P1;PMS_P2;Temp;Humidity;BMP_temperature;BMP_pressure;BME280_temperature;BME280_humidity;BME280_pressure;Samples;Min_cycle;Max_cycle;Signal;HPM_P1;HPM_P2
2022/09/25 00:00:33;;;;;;;16.10;11.57;;;;;;;;;;4986503;28;20124;-60
2022/09/25 00:02:59;;;;;;;17.88;12.45;;;;;;;;;;4995595;28;20267;-60
2022/09/25 00:05:24;;;;;;;15.63;11.50;;;;;;;;;;4986699;28;20481;-60
2022/09/25 00:07:50;;;;;;;14.93;10.82;;;;;;;;;;4994929;28;20050;-62
2022/09/25 00:10:16;;;;;;;16.48;10.98;;;;;;;;;;4993779;28;20794;-60
2022/09/25 00:12:41;;;;;;;14.18;10.70;;;;;;;;;;4996468;28;20149;-59
2022/09/25 00:15:07;;;;;;;15.73;10.93;;;;;;;;;;4998310;28;20072;-60
2022/09/25 00:17:33;;;;;;;12.27;9.63;;;;;;;;;;4995931;28;20462;-59
2022/09/25 00:19:59;;;;;;;13.32;9.35;;;;;;;;;;5000254;28;20140;-60
2022/09/25 00:22:26;;;;;;;15.80;9.90;;;;;;;;;;4994007;28;21228;-60
2022/09/25 00:24:52;;;;;;;14.30;9.38;;;;;;;;;;4989398;28;20052;-60
2022/09/25 00:27:18;;;;;;;15.10;9.82;;;;;;;;;;4994055;28;20038;-62
2022/09/25 00:29:43;;;;;;;14.63;9.10;;;;;;;;;;4995479;28;20053;-59
2022/09/25 00:32:10;;;;;;;13.60;9.48;;;;;;;;;;4993482;28;20061;-60
2022/09/25 00:34:37;;;;;;;12.10;9.48;;;;;;;;;;4993267;28;22007;-60
2022/09/25 00:37:03;;;;;;;12.93;8.90;;;;;;;;;;4992921;28;20069;-58
2022/09/25 00:39:29;;;;;;;10.93;8.93;;;;;;;;;;4995502;28;20042;-60
2022/09/25 00:41:55;;;;;;;15.68;9.52;;;;;;;;;;5003985;28;20046;-69
2022/09/25 00:44:42;;;;;;;10.50;8.57;;;;;;;;;;5003424;28;20048;-70
2022/09/25 00:47:09;;;;;;;12.20;8.43;;;;;;;;;;4998094;28;20112;-66
2022/09/25 00:49:35;;;;;;;11.90;9.05;;;;;;;;;;4999554;28;20037;-66
2022/09/25 00:52:05;;;;;;;12.40;8.90;;;;;;;;;;5004070;28;20969;-66
2022/09/25 00:54:46;;;;;;;13.73;9.65;;;;;;;;;;5005334;28;20048;-69
2022/09/25 00:57:16;;;;;;;11.88;8.80;;;;;;;;;;4999687;28;20049;-61
2022/09/25 00:59:49;;;;;;;11.68;8.57;;;;;;;;;;4997721;28;20037;-60
2022/09/25 01:02:21;;;;;;;10.18;7.50;;;;;;;;;;5000295;28;20128;-63
2022/09/25 01:04:48;;;;;;;9.80;7.55;;;;;;;;;;4994791;28;20172;-62
2022/09/25 01:07:14;;;;;;;11.40;7.30;;;;;;;;;;4977186;28;20093;-62
2022/09/25 01:09:40;;;;;;;9.18;7.50;;;;;;;;;;4995129;28;20061;-64
2022/09/25 01:12:06;;;;;;;11.27;7.82;;;;;;;;;;5000447;28;20804;-62
2022/09/25 01:14:33;;;;;;;10.35;7.28;;;;;;;;;;4995737;28;20042;-62
2022/09/25 01:17:20;;;;;;;8.77;7.43;;;;;;;;;;4997386;28;20850;-63
2022/09/25 01:20:11;;;;;;;8.55;7.30;;;;;;;;;;4995331;28;20046;-62
2022/09/25 01:22:59;;;;;;;15.40;8.00;;;;;;;;;;4994813;28;20369;-63
2022/09/25 01:25:43;;;;;;;11.32;7.63;;;;;;;;;;4996214;28;20046;-63
2022/09/25 01:28:28;;;;;;;14.35;7.53;;;;;;;;;;5005491;28;20041;-62
2022/09/25 01:31:00;;;;;;;9.25;7.18;;;;;;;;;;4995678;28;20107;-62
2022/09/25 01:33:44;;;;;;;8.88;6.80;;;;;;;;;;4994971;28;20045;-62
2022/09/25 01:36:37;;;;;;;12.80;7.80;;;;;;;;;;4994373;28;20034;-63
2022/09/25 01:39:10;;;;;;;8.00;6.90;;;;;;;;;;4998759;28;20042;-62
2022/09/25 01:41:46;;;;;;;8.95;7.43;;;;;;;;;;4991125;28;20483;-63
2022/09/25 01:44:22;;;;;;;12.55;8.70;;;;;;;;;;4992449;28;20070;-64
2022/09/25 01:46:50;;;;;;;8.85;7.68;;;;;;;;;;4991987;28;20057;-62
2022/09/25 01:49:23;;;;;;;11.65;8.43;;;;;;;;;;4991590;28;20141;-64
2022/09/25 01:51:50;;;;;;;;;;;;;;;;;;4990904;28;20056;-63
2022/09/25 01:54:40;;;;;;;15.15;9.18;;;;;;;;;;4988424;28;19929;-64
2022/09/25 01:57:14;;;;;;;14.63;9.68;;;;;;;;;;4994551;28;20039;-65
2022/09/25 01:59:50;;;;;;;15.57;9.25;;;;;;;;;;4991087;28;20038;-62
2022/09/25 02:02:20;;;;;;;12.77;9.65;;;;;;;;;;4987736;28;20489;-63
2022/09/25 02:04:55;;;;;;;15.18;9.75;;;;;;;;;;4988796;28;20042;-63
2022/09/25 02:07:26;;;;;;;15.68;10.60;;;;;;;;;;4992443;28;20042;-62
2022/09/25 02:09:56;;;;;;;17.58;10.55;;;;;;;;;;4987473;28;20058;-63
2022/09/25 02:12:36;;;;;;;15.25;11.20;;;;;;;;;;4994811;28;20054;-63
2022/09/25 02:15:06;;;;;;;22.45;11.70;;;;;;;;;;4992398;28;20046;-63
2022/09/25 02:20:50;;;;;;;18.33;11.82;;;;;;;;;;4992112;28;20721;-63
2022/09/25 02:23:46;;;;;;;18.15;11.18;;;;;;;;;;4990820;28;20192;-63
2022/09/25 02:26:19;;;;;;;19.35;11.95;;;;;;;;;;4971031;28;20053;-63
2022/09/25 02:28:44;;;;;;;;;;;;;;;;;;4988544;28;20133;-63
2022/09/25 02:31:12;;;;;;;18.33;13.60;;;;;;;;;;4993697;28;20083;-70
2022/09/25 02:33:38;;;;;;;20.73;13.82;;;;;;;;;;4998039;28;20297;-72
2022/09/25 02:36:05;;;;;;;20.00;13.70;;;;;;;;;;5000158;28;20050;-71
2022/09/25 02:38:32;;;;;;;19.98;14.32;;;;;;;;;;4995355;28;20050;-71
2022/09/25 02:41:26;;;;;;;19.70;14.10;;;;;;;;;;4997146;28;20093;-71
2022/09/25 02:44:09;;;;;;;;;;;;;;;;;;4993093;28;20047;-69
2022/09/25 02:47:05;;;;;;;19.30;13.25;;;;;;;;;;4994175;28;19932;-70
2022/09/25 02:49:46;;;;;;;21.13;13.43;;;;;;;;;;4996401;28;21069;-69
2022/09/25 02:52:41;;;;;;;23.13;13.45;;;;;;;;;;4995527;28;20073;-70
2022/09/25 02:55:18;;;;;;;17.77;12.70;;;;;;;;;;4988547;28;20053;-70
2022/09/25 02:58:02;;;;;;;20.05;13.23;;;;;;;;;;4996507;28;20046;-67
2022/09/25 03:00:28;;;;;;;19.58;12.95;;;;;;;;;;4992881;28;20077;-68
2022/09/25 03:02:58;;;;;;;19.13;13.00;;;;;;;;;;4992910;28;20144;-69
2022/09/25 03:05:25;;;;;;;20.73;12.85;;;;;;;;;;4994508;28;20162;-70
2022/09/25 03:10:38;;;;;;;19.05;12.85;;;;;;;;;;4993191;28;20057;-69
2022/09/25 03:13:22;;;;;;;21.38;13.10;;;;;;;;;;4998958;28;20026;-68
2022/09/25 03:15:54;;;;;;;17.58;12.10;;;;;;;;;;4996627;28;20201;-68
2022/09/25 03:18:20;;;;;;;16.92;11.77;;;;;;;;;;4999331;28;20042;-68
2022/09/25 03:20:46;;;;;;;17.58;11.95;;;;;;;;;;4998107;28;20056;-70
2022/09/25 03:23:11;;;;;;;19.42;11.90;;;;;;;;;;5001138;28;20054;-69
2022/09/25 03:25:37;;;;;;;15.80;11.55;;;;;;;;;;4999986;28;20039;-65
2022/09/25 03:28:05;;;;;;;14.18;10.57;;;;;;;;;;5004307;28;20057;-66
2022/09/25 03:30:31;;;;;;;14.90;10.63;;;;;;;;;;4999573;28;20046;-64
2022/09/25 03:32:56;;;;;;;13.40;10.13;;;;;;;;;;5000909;28;20405;-69
2022/09/25 03:35:21;;;;;;;11.75;9.77;;;;;;;;;;5000084;28;20046;-68
2022/09/25 03:37:47;;;;;;;12.52;9.65;;;;;;;;;;4999100;28;20045;-68
2022/09/25 03:40:12;;;;;;;14.43;10.23;;;;;;;;;;5001348;28;20492;-67
2022/09/25 03:42:38;;;;;;;14.10;10.02;;;;;;;;;;4999751;28;20157;-65
2022/09/25 03:45:05;;;;;;;12.02;9.23;;;;;;;;;;4998457;28;20420;-65
2022/09/25 03:47:30;;;;;;;13.50;9.95;;;;;;;;;;4991906;28;20057;-65
2022/09/25 03:49:55;;;;;;;16.85;10.23;;;;;;;;;;4997784;28;20382;-65
2022/09/25 03:52:21;;;;;;;13.60;9.23;;;;;;;;;;4994936;28;20394;-66
2022/09/25 03:54:46;;;;;;;12.43;9.02;;;;;;;;;;4996729;28;20560;-66
2022/09/25 03:57:13;;;;;;;12.07;9.43;;;;;;;;;;4994931;28;20042;-67
2022/09/25 03:59:39;;;;;;;15.25;8.32;;;;;;;;;;4992589;28;20042;-65
2022/09/25 04:02:04;;;;;;;9.85;7.05;;;;;;;;;;4996814;28;20076;-65
2022/09/25 04:04:31;;;;;;;10.43;7.15;;;;;;;;;;4992352;28;20311;-65
2022/09/25 04:06:56;;;;;;;9.77;7.18;;;;;;;;;;4998525;28;20030;-65
2022/09/25 04:09:22;;;;;;;8.20;7.03;;;;;;;;;;4992703;28;20123;-65
2022/09/25 04:11:47;;;;;;;8.60;7.10;;;;;;;;;;4997750;28;20054;-64
2022/09/25 04:14:13;;;;;;;9.32;6.55;;;;;;;;;;4990230;28;20088;-65
2022/09/25 04:16:39;;;;;;;12.75;6.93;;;;;;;;;;4990994;28;20044;-65
2022/09/25 04:19:05;;;;;;;7.75;5.97;;;;;;;;;;4998658;28;20060;-65
2022/09/25 04:21:31;;;;;;;8.90;5.68;;;;;;;;;;4993500;28;20137;-64
2022/09/25 04:26:54;;;;;;;5.63;4.90;;;;;;;;;;4955588;28;20046;-65
2022/09/25 04:29:21;;;;;;;5.47;4.50;;;;;;;;;;4997528;28;20104;-65
2022/09/25 04:33:44;;;;;;;9.38;4.53;;;;;;;;;;4990353;28;20400;-65
2022/09/25 04:34:33;;;;;;;5.53;4.40;;;;;;;;;;4990792;28;20034;-64
2022/09/25 04:37:00;;;;;;;5.82;3.72;;;;;;;;;;4992824;28;20030;-66
2022/09/25 04:39:25;;;;;;;6.40;4.47;;;;;;;;;;4993936;28;20133;-64
2022/09/25 04:41:50;;;;;;;4.70;4.18;;;;;;;;;;4991730;28;20129;-64
2022/09/25 04:44:16;;;;;;;8.68;4.60;;;;;;;;;;4996438;28;20085;-64
2022/09/25 04:46:42;;;;;;;5.88;4.20;;;;;;;;;;4993849;28;20046;-67
2022/09/25 04:49:07;;;;;;;6.05;4.57;;;;;;;;;;4995911;28;20022;-64
2022/09/25 04:51:32;;;;;;;5.93;4.80;;;;;;;;;;4993626;28;20053;-66
2022/09/25 04:53:58;;;;;;;6.55;4.40;;;;;;;;;;4985571;28;20057;-66
2022/09/25 04:56:24;;;;;;;5.82;4.68;;;;;;;;;;4995588;28;20056;-67
2022/09/25 04:58:50;;;;;;;5.63;4.20;;;;;;;;;;4996529;28;20069;-64
2022/09/25 05:01:18;;;;;;;5.63;5.00;;;;;;;;;;4995217;28;20061;-65
2022/09/25 05:03:47;;;;;;;5.82;4.63;;;;;;;;;;4990343;28;20061;-65
2022/09/25 05:06:13;;;;;;;4.93;4.28;;;;;;;;;;4996658;28;20108;-65
2022/09/25 05:08:38;;;;;;;8.30;4.65;;;;;;;;;;4992504;28;20049;-66
2022/09/25 05:11:04;;;;;;;7.70;4.72;;;;;;;;;;4995042;28;20037;-65
2022/09/25 05:13:29;;;;;;;7.05;4.43;;;;;;;;;;4991797;28;20030;-65
2022/09/25 05:15:55;;;;;;;5.72;4.80;;;;;;;;;;4989537;28;20026;-65
2022/09/25 05:18:22;;;;;;;8.27;4.93;;;;;;;;;;4993415;28;20103;-65
2022/09/25 05:20:48;;;;;;;5.15;4.60;;;;;;;;;;4993773;28;20053;-66
2022/09/25 05:23:15;;;;;;;6.05;4.75;;;;;;;;;;4993149;28;20057;-66
2022/09/25 05:25:40;;;;;;;5.38;4.60;;;;;;;;;;4993253;28;25999;-65
2022/09/25 05:28:06;;;;;;;11.13;4.90;;;;;;;;;;4996323;28;20048;-66
2022/09/25 05:30:33;;;;;;;8.15;4.88;;;;;;;;;;4993023;28;20054;-65
2022/09/25 05:32:59;;;;;;;6.15;4.80;;;;;;;;;;4994872;28;20489;-65
2022/09/25 05:35:28;;;;;;;5.57;4.78;;;;;;;;;;4989752;28;20045;-66
2022/09/25 05:37:53;;;;;;;7.60;5.40;;;;;;;;;;4997890;28;20074;-65
2022/09/25 05:40:22;;;;;;;7.07;5.28;;;;;;;;;;4991943;28;20054;-65
2022/09/25 05:42:49;;;;;;;6.43;5.50;;;;;;;;;;4991335;28;20074;-65
2022/09/25 05:45:18;;;;;;;6.22;5.28;;;;;;;;;;4987150;28;20169;-65
2022/09/25 05:47:44;;;;;;;6.28;5.10;;;;;;;;;;4991525;28;21381;-65
2022/09/25 05:50:12;;;;;;;6.30;4.90;;;;;;;;;;4991868;28;20043;-65
2022/09/25 05:52:41;;;;;;;6.50;4.82;;;;;;;;;;4990235;28;20048;-65
2022/09/25 05:55:07;;;;;;;6.53;5.28;;;;;;;;;;4993385;28;20030;-65
2022/09/25 05:57:34;;;;;;;6.68;5.22;;;;;;;;;;4993243;28;20081;-65
2022/09/25 06:00:00;;;;;;;8.77;5.30;;;;;;;;;;4993888;28;20196;-65
2022/09/25 06:02:26;;;;;;;8.15;5.22;;;;;;;;;;4997280;28;20042;-65
2022/09/25 06:04:51;;;;;;;8.18;5.85;;;;;;;;;;4999656;28;20459;-65
2022/09/25 06:07:17;;;;;;;7.57;5.82;;;;;;;;;;4996034;28;21086;-60
2022/09/25 06:09:42;;;;;;;8.50;6.15;;;;;;;;;;4995151;28;20185;-59
2022/09/25 06:12:07;;;;;;;8.43;5.60;;;;;;;;;;4996701;28;20502;-59
2022/09/25 06:14:36;;;;;;;6.00;5.28;;;;;;;;;;4993499;28;20116;-60
2022/09/25 06:17:02;;;;;;;7.05;5.32;;;;;;;;;;4992726;28;20049;-59
2022/09/25 06:19:30;;;;;;;9.57;5.15;;;;;;;;;;4992459;28;20038;-60
2022/09/25 06:21:58;;;;;;;6.75;5.00;;;;;;;;;;4996388;28;20033;-59
2022/09/25 06:24:24;;;;;;;7.97;5.03;;;;;;;;;;4991951;28;20120;-60
2022/09/25 06:26:49;;;;;;;6.18;5.28;;;;;;;;;;4993835;28;20429;-61
2022/09/25 06:29:15;;;;;;;8.07;5.20;;;;;;;;;;4996259;28;20054;-61
2022/09/25 06:31:40;;;;;;;7.75;6.25;;;;;;;;;;4987422;28;20069;-61
2022/09/25 06:34:08;;;;;;;7.60;6.47;;;;;;;;;;4993119;28;20060;-61
2022/09/25 06:36:33;;;;;;;8.35;6.30;;;;;;;;;;4990388;28;20081;-61
2022/09/25 06:38:59;;;;;;;9.68;6.75;;;;;;;;;;4992437;28;20081;-61
2022/09/25 06:41:24;;;;;;;8.65;6.60;;;;;;;;;;4992405;28;20096;-60
2022/09/25 06:43:50;;;;;;;10.32;7.13;;;;;;;;;;4993472;28;20038;-59
2022/09/25 06:46:17;;;;;;;9.07;7.05;;;;;;;;;;4990242;28;20108;-60
2022/09/25 06:48:43;;;;;;;11.85;7.70;;;;;;;;;;4989491;28;22142;-59
2022/09/25 06:51:08;;;;;;;10.98;7.75;;;;;;;;;;4996596;28;20046;-60
2022/09/25 06:53:33;;;;;;;9.60;7.15;;;;;;;;;;4986034;28;20085;-60
2022/09/25 06:55:59;;;;;;;7.28;6.20;;;;;;;;;;4987343;28;20046;-60
2022/09/25 06:58:29;;;;;;;8.73;6.72;;;;;;;;;;4998752;28;20034;-60
2022/09/25 07:00:55;;;;;;;7.53;6.50;;;;;;;;;;4993566;28;20049;-60
2022/09/25 07:06:09;;;;;;;8.40;4.95;;;;;;;;;;4997934;28;20080;-61
2022/09/25 07:08:35;;;;;;;8.20;5.20;;;;;;;;;;5000165;28;20034;-61
2022/09/25 07:11:00;;;;;;;11.60;6.28;;;;;;;;;;4998585;28;20103;-61
2022/09/25 07:13:31;;;;;;;11.48;6.40;;;;;;;;;;4999556;28;20931;-59
2022/09/25 07:15:58;;;;;;;9.18;5.55;;;;;;;;;;4991271;28;20029;-60
2022/09/25 07:18:26;;;;;;;8.73;5.40;;;;;;;;;;4993230;28;20060;-62
2022/09/25 07:20:52;;;;;;;7.22;5.80;;;;;;;;;;4995518;28;20269;-61
2022/09/25 07:23:19;;;;;;;6.53;5.80;;;;;;;;;;4999106;28;20041;-60
2022/09/25 07:25:45;;;;;;;7.30;5.80;;;;;;;;;;4995833;28;21800;-60
2022/09/25 07:28:12;;;;;;;6.93;5.50;;;;;;;;;;4998250;28;20032;-60
2022/09/25 07:30:38;;;;;;;7.22;5.90;;;;;;;;;;4990236;28;20169;-60
2022/09/25 07:33:04;;;;;;;9.32;5.65;;;;;;;;;;4997613;28;20217;-60
2022/09/25 07:35:29;;;;;;;6.90;5.80;;;;;;;;;;4991798;28;20377;-60
2022/09/25 07:37:56;;;;;;;7.45;6.00;;;;;;;;;;4991354;28;20082;-57
2022/09/25 07:40:22;;;;;;;7.03;6.22;;;;;;;;;;4995639;28;20095;-60
2022/09/25 07:42:47;;;;;;;8.20;5.90;;;;;;;;;;4996704;28;20469;-60
2022/09/25 07:45:13;;;;;;;9.23;5.88;;;;;;;;;;4994027;28;20429;-60
2022/09/25 07:47:38;;;;;;;8.15;5.85;;;;;;;;;;4998448;28;20038;-60
2022/09/25 07:50:04;;;;;;;11.93;6.45;;;;;;;;;;4995419;28;20046;-60
2022/09/25 07:52:29;;;;;;;8.00;6.15;;;;;;;;;;4998601;28;20026;-60
2022/09/25 07:54:55;;;;;;;10.60;6.68;;;;;;;;;;4993387;28;20473;-60
2022/09/25 07:57:20;;;;;;;10.15;7.35;;;;;;;;;;4995619;28;20043;-60
2022/09/25 07:59:46;;;;;;;11.65;7.75;;;;;;;;;;4988368;28;20182;-60
2022/09/25 08:02:12;;;;;;;10.18;8.02;;;;;;;;;;4993390;28;20052;-60
2022/09/25 08:04:37;;;;;;;10.25;7.75;;;;;;;;;;5000210;28;20025;-61
2022/09/25 08:07:03;;;;;;;10.35;7.45;;;;;;;;;;4994479;28;20444;-69
2022/09/25 08:09:29;;;;;;;10.48;8.48;;;;;;;;;;4996380;28;20091;-67
2022/09/25 08:11:54;;;;;;;10.77;8.40;;;;;;;;;;4996668;28;20132;-67
2022/09/25 08:14:21;;;;;;;9.40;8.27;;;;;;;;;;4993611;28;20052;-67
2022/09/25 08:16:47;;;;;;;13.93;9.35;;;;;;;;;;4988972;28;20042;-66
2022/09/25 08:19:16;;;;;;;11.57;8.52;;;;;;;;;;4996199;28;20093;-66
2022/09/25 08:21:42;;;;;;;11.73;9.35;;;;;;;;;;4993889;28;20053;-67
2022/09/25 08:24:09;;;;;;;13.00;8.40;;;;;;;;;;4994760;28;20050;-66
2022/09/25 08:26:35;;;;;;;10.40;8.10;;;;;;;;;;4990648;28;20103;-67
2022/09/25 08:29:03;;;;;;;13.07;8.63;;;;;;;;;;4993034;28;20389;-67
2022/09/25 08:31:29;;;;;;;11.68;8.90;;;;;;;;;;4992136;28;20021;-67
2022/09/25 08:33:54;;;;;;;11.43;8.43;;;;;;;;;;4987162;28;20091;-66
2022/09/25 08:36:20;;;;;;;11.63;8.40;;;;;;;;;;4994467;28;20645;-67
2022/09/25 08:38:46;;;;;;;11.10;8.95;;;;;;;;;;4990312;28;20049;-67
2022/09/25 08:41:22;;;;;;;11.88;8.88;;;;;;;;;;4991166;28;20050;-67
2022/09/25 08:43:56;;;;;;;10.27;7.97;;;;;;;;;;4991234;28;20069;-67
2022/09/25 08:49:38;;;;;;;10.82;8.55;;;;;;;;;;4997843;28;20516;-67
2022/09/25 08:52:10;;;;;;;12.68;8.68;;;;;;;;;;4996837;28;20038;-67
2022/09/25 08:54:35;;;;;;;13.48;8.30;;;;;;;;;;4983312;28;20081;-67
2022/09/25 08:57:36;;;;;;;12.05;9.30;;;;;;;;;;4991509;28;20054;-67
2022/09/25 09:00:15;;;;;;;12.48;8.88;;;;;;;;;;4999751;28;20065;-67
2022/09/25 09:02:44;;;;;;;12.90;8.45;;;;;;;;;;4988711;28;20038;-67
2022/09/25 09:05:32;;;;;;;11.45;8.77;;;;;;;;;;4992751;28;20072;-67
2022/09/25 09:08:16;;;;;;;12.10;8.05;;;;;;;;;;5001139;28;20042;-60
2022/09/25 09:10:58;;;;;;;11.45;8.55;;;;;;;;;;4993727;28;20060;-59
2022/09/25 09:13:34;;;;;;;11.70;8.40;;;;;;;;;;4992579;28;20292;-58
2022/09/25 09:16:13;;;;;;;11.15;8.80;;;;;;;;;;4991750;28;20065;-58
2022/09/25 09:18:41;;;;;;;11.20;8.50;;;;;;;;;;4994974;28;20412;-60
2022/09/25 09:21:34;;;;;;;10.63;7.82;;;;;;;;;;4995440;28;20060;-60
2022/09/25 09:24:25;;;;;;;10.90;8.15;;;;;;;;;;4995397;28;20050;-59
2022/09/25 09:27:08;;;;;;;12.45;8.93;;;;;;;;;;4994869;28;20057;-60
2022/09/25 09:29:48;;;;;;;11.23;8.60;;;;;;;;;;4993308;28;20480;-60
2022/09/25 09:32:36;;;;;;;11.50;8.45;;;;;;;;;;4997149;28;20056;-58
2022/09/25 09:35:55;;;;;;;16.35;9.52;;;;;;;;;;4994422;28;20044;-57
2022/09/25 09:38:57;;;;;;;12.35;9.20;;;;;;;;;;4958172;28;20038;-59
2022/09/25 09:41:44;;;;;;;11.38;9.30;;;;;;;;;;4997738;28;20046;-59
2022/09/25 09:44:22;;;;;;;13.45;8.68;;;;;;;;;;4997294;28;20504;-58
2022/09/25 09:47:03;;;;;;;12.20;8.38;;;;;;;;;;4997605;28;20426;-60
2022/09/25 09:49:43;;;;;;;11.48;8.95;;;;;;;;;;5002171;28;20113;-55
2022/09/25 09:52:16;;;;;;;13.68;8.68;;;;;;;;;;4999149;28;20038;-57
2022/09/25 09:54:54;;;;;;;11.43;8.25;;;;;;;;;;4992920;28;20054;-56
2022/09/25 09:57:25;;;;;;;10.95;8.40;;;;;;;;;;4995590;28;20050;-59
2022/09/25 10:00:01;;;;;;;13.48;9.80;;;;;;;;;;4998226;28;20038;-58
2022/09/25 10:02:40;;;;;;;14.10;9.15;;;;;;;;;;4993354;28;20042;-59
2022/09/25 10:05:28;;;;;;;12.40;9.05;;;;;;;;;;5000948;28;20133;-56
2022/09/25 10:07:54;;;;;;;14.02;9.18;;;;;;;;;;4999055;28;20062;-58
2022/09/25 10:10:22;;;;;;;13.00;9.13;;;;;;;;;;4998950;28;20523;-57
2022/09/25 10:12:53;;;;;;;14.07;10.13;;;;;;;;;;4993804;28;20047;-60
2022/09/25 10:15:25;;;;;;;11.38;9.63;;;;;;;;;;4993845;28;20054;-59
2022/09/25 10:17:53;;;;;;;13.10;8.25;;;;;;;;;;4996917;28;20065;-58
2022/09/25 10:20:22;;;;;;;10.30;7.10;;;;;;;;;;5000459;28;20105;-59
2022/09/25 10:22:52;;;;;;;10.18;7.10;;;;;;;;;;4995778;28;20076;-60
2022/09/25 10:25:37;;;;;;;10.07;7.10;;;;;;;;;;4997055;28;20029;-58
2022/09/25 10:28:26;;;;;;;9.25;6.50;;;;;;;;;;5000255;28;20061;-58
2022/09/25 10:30:51;;;;;;;6.78;5.60;;;;;;;;;;4996685;28;20057;-58
2022/09/25 10:33:29;;;;;;;5.97;4.50;;;;;;;;;;5002390;28;20555;-58
2022/09/25 10:35:55;;;;;;;6.55;4.40;;;;;;;;;;4998431;28;20180;-59
2022/09/25 10:38:37;;;;;;;7.28;5.20;;;;;;;;;;4996813;28;20125;-63
2022/09/25 10:41:14;;;;;;;5.70;4.32;;;;;;;;;;4996100;28;20073;-57
2022/09/25 10:43:54;;;;;;;5.47;4.35;;;;;;;;;;4989419;28;20026;-59
2022/09/25 10:50:09;;;;;;;5.78;4.20;;;;;;;;;;5002248;28;20045;-58
2022/09/25 10:52:05;;;;;;;5.25;4.30;;;;;;;;;;5001415;28;20057;-56
2022/09/25 10:54:32;;;;;;;5.55;4.10;;;;;;;;;;5000207;28;20053;-60
2022/09/25 10:56:58;;;;;;;5.13;4.05;;;;;;;;;;4993725;28;20046;-59
2022/09/25 10:59:24;;;;;;;5.90;4.38;;;;;;;;;;4995113;28;20058;-59
2022/09/25 11:01:52;;;;;;;6.18;4.30;;;;;;;;;;4998089;28;20092;-58
2022/09/25 11:04:28;;;;;;;8.30;4.72;;;;;;;;;;4998966;28;20038;-58
2022/09/25 11:07:03;;;;;;;4.88;4.10;;;;;;;;;;4999197;28;20485;-57
2022/09/25 11:09:31;;;;;;;8.73;4.05;;;;;;;;;;5002950;28;20408;-56
2022/09/25 11:12:28;;;;;;;8.77;4.80;;;;;;;;;;4992460;28;20081;-60
2022/09/25 11:15:04;;;;;;;5.75;3.20;;;;;;;;;;4993263;28;20057;-58
2022/09/25 11:17:38;;;;;;;4.65;3.10;;;;;;;;;;5000878;28;20076;-54
2022/09/25 11:20:16;;;;;;;5.13;2.83;;;;;;;;;;4993417;28;20073;-62
2022/09/25 11:23:05;;;;;;;4.63;2.67;;;;;;;;;;5001610;28;20044;-60
2022/09/25 11:25:52;;;;;;;5.57;2.40;;;;;;;;;;5000060;28;20045;-59
2022/09/25 11:28:48;;;;;;;5.50;2.33;;;;;;;;;;4999316;28;20038;-56
2022/09/25 11:31:38;;;;;;;5.55;2.63;;;;;;;;;;4997403;28;20062;-57
2022/09/25 11:34:25;;;;;;;4.20;2.50;;;;;;;;;;4992649;28;20057;-58
2022/09/25 11:36:56;;;;;;;6.50;2.55;;;;;;;;;;4990570;28;20046;-59
2022/09/25 11:42:31;;;;;;;7.20;2.78;;;;;;;;;;4997506;28;20184;-57
2022/09/25 11:45:12;;;;;;;7.28;2.70;;;;;;;;;;4996039;28;21035;-55
2022/09/25 11:47:53;;;;;;;4.15;2.45;;;;;;;;;;4992294;28;20046;-56
2022/09/25 11:50:26;;;;;;;7.05;2.60;;;;;;;;;;4997965;28;20092;-55
2022/09/25 11:53:23;;;;;;;7.55;2.65;;;;;;;;;;4995411;28;20057;-54
2022/09/25 11:56:06;;;;;;;4.68;2.28;;;;;;;;;;4995489;28;20038;-56
2022/09/25 11:58:49;;;;;;;19.38;3.10;;;;;;;;;;5002550;28;20038;-59
2022/09/25 12:01:20;;;;;;;2.85;2.30;;;;;;;;;;4991069;28;20029;-59
2022/09/25 12:04:06;;;;;;;11.80;5.88;;;;;;;;;;4994884;28;20412;-59
2022/09/25 12:06:52;;;;;;;6.03;2.72;;;;;;;;;;4995636;28;20054;-58
2022/09/25 12:09:41;;;;;;;9.80;5.35;;;;;;;;;;4991664;28;20084;-55
2022/09/25 12:12:31;;;;;;;6.05;2.67;;;;;;;;;;4999081;28;20046;-59
2022/09/25 12:15:20;;;;;;;8.82;3.10;;;;;;;;;;4994453;28;20057;-61
2022/09/25 12:17:54;;;;;;;5.65;2.83;;;;;;;;;;4996345;28;20111;-60
2022/09/25 12:20:47;;;;;;;4.70;2.80;;;;;;;;;;4997025;28;20046;-58
2022/09/25 12:23:28;;;;;;;6.30;2.00;;;;;;;;;;4996834;28;20042;-58
2022/09/25 12:25:53;;;;;;;5.10;2.78;;;;;;;;;;4996615;28;20054;-57
2022/09/25 12:28:28;;;;;;;3.88;2.20;;;;;;;;;;5000057;28;20041;-59
2022/09/25 12:31:27;;;;;;;4.45;2.20;;;;;;;;;;4990137;28;20157;-55
2022/09/25 12:34:39;;;;;;;1.80;1.70;;;;;;;;;;4999217;28;20073;-60
2022/09/25 12:37:21;;;;;;;1.85;1.52;;;;;;;;;;4992280;28;20169;-56
2022/09/25 12:40:02;;;;;;;3.13;1.90;;;;;;;;;;4997764;28;20127;-59
2022/09/25 12:42:36;;;;;;;1.95;1.50;;;;;;;;;;4999890;28;20034;-59
2022/09/25 12:45:32;;;;;;;2.63;1.67;;;;;;;;;;4995231;28;20060;-58
2022/09/25 12:48:10;;;;;;;2.28;1.52;;;;;;;;;;4989146;28;20054;-57
2022/09/25 12:50:45;;;;;;;2.05;1.50;;;;;;;;;;4995788;28;20052;-60
2022/09/25 12:53:16;;;;;;;1.77;1.50;;;;;;;;;;4995477;28;20047;-59
2022/09/25 12:55:51;;;;;;;2.78;1.85;;;;;;;;;;4994890;28;20050;-56
2022/09/25 12:58:47;;;;;;;1.98;1.48;;;;;;;;;;4991947;28;20473;-54
2022/09/25 13:01:26;;;;;;;1.83;1.20;;;;;;;;;;4995287;28;20382;-58
2022/09/25 13:04:17;;;;;;;1.88;1.20;;;;;;;;;;4996514;28;20057;-60
2022/09/25 13:07:02;;;;;;;3.88;1.50;;;;;;;;;;4998780;28;20050;-63
2022/09/25 13:09:40;;;;;;;8.25;1.35;;;;;;;;;;4998897;28;20037;-64
2022/09/25 13:12:18;;;;;;;3.25;1.60;;;;;;;;;;4996342;28;20038;-60
2022/09/25 13:14:48;;;;;;;2.92;1.50;;;;;;;;;;4995774;28;20092;-61
2022/09/25 13:17:14;;;;;;;2.85;1.50;;;;;;;;;;4994756;28;20042;-58
2022/09/25 13:19:40;;;;;;;2.97;1.80;;;;;;;;;;4999066;28;20037;-56
2022/09/25 13:22:12;;;;;;;2.20;1.58;;;;;;;;;;4994393;28;20041;-65
2022/09/25 13:25:01;;;;;;;2.43;1.60;;;;;;;;;;4998876;28;20056;-64
2022/09/25 13:27:37;;;;;;;2.17;1.70;;;;;;;;;;4992033;28;20348;-65
2022/09/25 13:30:03;;;;;;;2.97;1.85;;;;;;;;;;4993552;28;20046;-66
2022/09/25 13:32:34;;;;;;;4.70;1.90;;;;;;;;;;4983473;28;20081;-65
2022/09/25 13:35:06;;;;;;;3.90;1.58;;;;;;;;;;4995104;28;20127;-66
2022/09/25 13:37:37;;;;;;;2.95;1.88;;;;;;;;;;4999170;28;20045;-65
2022/09/25 13:43:29;;;;;;;4.10;1.88;;;;;;;;;;4993591;28;20066;-65
2022/09/25 13:46:22;;;;;;;4.30;1.80;;;;;;;;;;4979660;28;20058;-64
2022/09/25 13:48:51;;;;;;;4.88;1.83;;;;;;;;;;4991381;28;20061;-65
2022/09/25 13:51:19;;;;;;;4.32;1.80;;;;;;;;;;4995957;28;20128;-66
2022/09/25 13:54:02;;;;;;;3.50;1.63;;;;;;;;;;4993966;28;20081;-64
2022/09/25 13:56:39;;;;;;;4.38;2.10;;;;;;;;;;4990899;28;20535;-65
2022/09/25 13:59:14;;;;;;;5.47;2.20;;;;;;;;;;4990691;28;20050;-67
2022/09/25 14:01:58;;;;;;;3.22;1.45;;;;;;;;;;4989899;28;20038;-56
2022/09/25 14:04:36;;;;;;;3.50;1.55;;;;;;;;;;4994398;28;20059;-56
2022/09/25 14:07:25;;;;;;;4.60;1.67;;;;;;;;;;4993948;28;20070;-66
2022/09/25 14:09:56;;;;;;;4.38;1.77;;;;;;;;;;4988429;28;20057;-66
2022/09/25 14:12:26;;;;;;;4.63;1.88;;;;;;;;;;4992026;28;20460;-66
2022/09/25 14:15:06;;;;;;;2.90;1.88;;;;;;;;;;4988533;28;20081;-65
2022/09/25 14:17:35;;;;;;;3.67;2.42;;;;;;;;;;4991264;28;20493;-65
2022/09/25 14:20:06;;;;;;;5.93;2.78;;;;;;;;;;4989601;28;20125;-66
2022/09/25 14:23:05;;;;;;;8.30;2.67;;;;;;;;;;4992651;28;20033;-67
2022/09/25 14:25:37;;;;;;;7.53;2.50;;;;;;;;;;4981725;28;20558;-67
2022/09/25 14:28:23;;;;;;;3.80;2.00;;;;;;;;;;4994107;28;20041;-66
2022/09/25 14:31:38;;;;;;;3.25;1.98;;;;;;;;;;4996868;28;20077;-66
2022/09/25 14:34:28;;;;;;;3.88;2.50;;;;;;;;;;4997722;28;20033;-63
2022/09/25 14:37:03;;;;;;;8.88;2.92;;;;;;;;;;4994913;28;20309;-65
2022/09/25 14:39:55;;;;;;;3.88;2.53;;;;;;;;;;5002650;28;20095;-63
2022/09/25 14:42:39;;;;;;;3.85;2.28;;;;;;;;;;5006523;28;20137;-67
2022/09/25 14:45:14;;;;;;;6.35;2.15;;;;;;;;;;4996852;28;20133;-64
2022/09/25 14:47:42;;;;;;;4.85;1.90;;;;;;;;;;4995384;28;20496;-66
2022/09/25 14:50:18;;;;;;;3.95;2.28;;;;;;;;;;4993620;28;20129;-69
2022/09/25 14:52:44;;;;;;;3.53;2.33;;;;;;;;;;4998581;28;20060;-66
2022/09/25 14:55:15;;;;;;;4.15;2.30;;;;;;;;;;4994887;28;20022;-66
2022/09/25 14:57:40;;;;;;;5.03;1.95;;;;;;;;;;4997740;28;20062;-63
2022/09/25 15:00:13;;;;;;;3.85;1.80;;;;;;;;;;4998244;28;20046;-64
2022/09/25 15:02:42;;;;;;;6.30;1.73;;;;;;;;;;4996628;28;20756;-59
2022/09/25 15:05:37;;;;;;;3.50;1.50;;;;;;;;;;4998716;28;20053;-58
2022/09/25 15:08:20;;;;;;;8.23;2.10;;;;;;;;;;4988802;28;20572;-66
2022/09/25 15:10:45;;;;;;;2.53;1.60;;;;;;;;;;5006443;28;20099;-67
2022/09/25 15:13:15;;;;;;;5.68;2.25;;;;;;;;;;5000992;28;20411;-66
2022/09/25 15:17:20;;;;;;;6.32;1.75;;;;;;;;;;4997146;28;20123;-57
2022/09/25 15:18:29;;;;;;;7.00;2.05;;;;;;;;;;4994588;28;20061;-59
2022/09/25 15:20:55;;;;;;;7.32;2.03;;;;;;;;;;4993995;28;20073;-59
2022/09/25 15:23:21;;;;;;;7.03;2.15;;;;;;;;;;4995465;28;20507;-59
2022/09/25 15:25:53;;;;;;;9.38;2.35;;;;;;;;;;4999119;28;20042;-60
2022/09/25 15:28:24;;;;;;;6.57;2.00;;;;;;;;;;4994005;28;20097;-59
2022/09/25 15:31:02;;;;;;;8.18;2.00;;;;;;;;;;4996059;28;20056;-57
2022/09/25 15:33:33;;;;;;;4.35;1.77;;;;;;;;;;4997710;28;20077;-58